sensor_id;sensor_type;location;lat;lon;timestamp;pressure;altitude;pressure_sealevel;temperature;humidity
6532;BME280;3299;42.004;24.868;2023-10-19T00:00:47;98389.84;;;10.61;100.00
6532;BME280;3299;42.004;24.868;2023-10-19T00:03:17;98402.25;;;10.69;100.00
6532;BME280;3299;42.004;24.868;2023-10-19T00:05:49;98390.69;;;10.62;100.00
6532;BME280;3299;42.004;24.868;2023-10-19T00:08:15;98365.28;;;10.67;100.00
6532;BME280;3299;42.004;24.868;2023-10-19T00:10:47;98394.78;;;10.77;100.00
6532;BME280;3299;42.004;24.868;2023-10-19T00:13:14;98379.66;;;10.71;100.00
6532;BME280;3299;42.004;24.868;2023-10-19T00:15:41;98404.78;;;10.81;100.00
6532;BME280;3299;42.004;24.868;2023-10-19T00:18:14;98379.56;;;10.72;100.00
6532;BME280;3299;42.004;24.868;2023-10-19T00:20:52;98378.31;;;10.78;100.00
6532;BME280;3299;42.004;24.868;2023-10-19T00:23:20;98386.66;;;10.94;100.00
6532;BME280;3299;42.004;24.868;2023-10-19T00:25:58;98374.25;;;10.86;100.00
6532;BME280;3299;42.004;24.868;2023-10-19T00:28:24;98385.09;;;11.04;100.00
6532;BME280;3299;42.004;24.868;2023-10-19T00:30:52;98379.59;;;10.96;100.00
6532;BME280;3299;42.004;24.868;2023-10-19T00:33:19;98377.34;;;10.91;100.00
6532;BME280;3299;42.004;24.868;2023-10-19T00:35:48;98343.44;;;10.71;100.00
6532;BME280;3299;42.004;24.868;2023-10-19T00:38:26;98371.13;;;10.94;100.00
6532;BME280;3299;42.004;24.868;2023-10-19T00:40:54;98377.31;;;11.04;100.00
6532;BME280;3299;42.004;24.868;2023-10-19T00:43:28;98361.59;;;10.94;100.00
6532;BME280;3299;42.004;24.868;2023-10-19T00:45:54;98365.19;;;11.04;100.00
6532;BME280;3299;42.004;24.868;2023-10-19T00:48:20;98337.72;;;10.91;100.00
6532;BME280;3299;42.004;24.868;2023-10-19T00:50:52;98345.09;;;11.08;100.00
6532;BME280;3299;42.004;24.868;2023-10-19T00:53:20;98328.84;;;10.82;100.00
6532;BME280;3299;42.004;24.868;2023-10-19T00:55:47;98352.41;;;10.90;100.00
6532;BME280;3299;42.004;24.868;2023-10-19T00:58:13;98350.59;;;10.67;100.00
6532;BME280;3299;42.004;24.868;2023-10-19T01:00:44;98338.31;;;10.58;100.00
6532;BME280;3299;42.004;24.868;2023-10-19T01:03:11;98354.72;;;10.70;100.00
6532;BME280;3299;42.004;24.868;2023-10-19T01:05:39;98340.34;;;10.66;100.00
6532;BME280;3299;42.004;24.868;2023-10-19T01:08:04;98354.03;;;10.68;100.00
6532;BME280;3299;42.004;24.868;2023-10-19T01:10:49;98303.41;;;10.28;100.00
6532;BME280;3299;42.004;24.868;2023-10-19T01:13:18;98304.81;;;10.32;100.00
6532;BME280;3299;42.004;24.868;2023-10-19T01:15:44;98306.44;;;10.45;100.00
6532;BME280;3299;42.004;24.868;2023-10-19T01:18:14;98308.50;;;10.53;100.00
6532;BME280;3299;42.004;24.868;2023-10-19T01:20:42;98304.91;;;10.43;100.00
6532;BME280;3299;42.004;24.868;2023-10-19T01:23:16;98315.56;;;10.51;100.00
6532;BME280;3299;42.004;24.868;2023-10-19T01:26:08;98306.25;;;10.36;100.00
6532;BME280;3299;42.004;24.868;2023-10-19T01:28:35;98311.31;;;10.50;100.00
6532;BME280;3299;42.004;24.868;2023-10-19T01:31:12;98334.13;;;10.68;100.00
6532;BME280;3299;42.004;24.868;2023-10-19T01:33:43;98319.78;;;10.52;100.00
6532;BME280;3299;42.004;24.868;2023-10-19T01:36:10;98293.84;;;10.41;100.00
6532;BME280;3299;42.004;24.868;2023-10-19T01:38:48;98302.13;;;10.46;100.00
6532;BME280;3299;42.004;24.868;2023-10-19T01:41:14;98332.91;;;10.74;100.00
6532;BME280;3299;42.004;24.868;2023-10-19T01:43:42;98289.91;;;10.48;100.00
6532;BME280;3299;42.004;24.868;2023-10-19T01:46:09;98335.69;;;10.71;100.00
6532;BME280;3299;42.004;24.868;2023-10-19T01:48:41;98311.09;;;10.53;100.00
6532;BME280;3299;42.004;24.868;2023-10-19T01:51:08;98303.34;;;10.53;100.00
6532;BME280;3299;42.004;24.868;2023-10-19T01:53:39;98308.50;;;10.53;100.00
6532;BME280;3299;42.004;24.868;2023-10-19T01:56:08;98304.38;;;10.50;100.00
6532;BME280;3299;42.004;24.868;2023-10-19T01:58:38;98281.13;;;10.38;100.00
6532;BME280;3299;42.004;24.868;2023-10-19T02:01:07;98279.97;;;10.42;100.00
6532;BME280;3299;42.004;24.868;2023-10-19T02:03:42;98302.41;;;10.54;100.00
6532;BME280;3299;42.004;24.868;2023-10-19T02:06:13;98306.06;;;10.39;100.00
6532;BME280;3299;42.004;24.868;2023-10-19T02:08:55;98290.78;;;10.23;100.00
6532;BME280;3299;42.004;24.868;2023-10-19T02:11:26;98297.47;;;10.26;100.00
6532;BME280;3299;42.004;24.868;2023-10-19T02:13:56;98341.00;;;10.44;100.00
6532;BME280;3299;42.004;24.868;2023-10-19T02:16:25;98302.38;;;10.18;100.00
6532;BME280;3299;42.004;24.868;2023-10-19T02:18:51;98340.59;;;10.38;100.00
6532;BME280;3299;42.004;24.868;2023-10-19T02:21:17;98330.47;;;10.35;100.00
6532;BME280;3299;42.004;24.868;2023-10-19T02:23:54;98320.38;;;10.19;100.00
6532;BME280;3299;42.004;24.868;2023-10-19T02:26:20;98317.25;;;10.14;100.00
6532;BME280;3299;42.004;24.868;2023-10-19T02:28:48;98329.56;;;10.23;100.00
6532;BME280;3299;42.004;24.868;2023-10-19T02:31:17;98339.59;;;10.28;100.00
6532;BME280;3299;42.004;24.868;2023-10-19T02:33:50;98302.88;;;9.98;100.00
6532;BME280;3299;42.004;24.868;2023-10-19T02:36:29;98344.75;;;10.15;100.00
6532;BME280;3299;42.004;24.868;2023-10-19T02:38:56;98304.84;;;10.07;100.00
6532;BME280;3299;42.004;24.868;2023-10-19T02:41:28;98332.97;;;10.24;100.00
6532;BME280;3299;42.004;24.868;2023-10-19T02:43:54;98319.75;;;10.16;100.00
6532;BME280;3299;42.004;24.868;2023-10-19T02:46:34;98332.56;;;10.30;100.00
6532;BME280;3299;42.004;24.868;2023-10-19T02:49:03;98339.19;;;10.21;100.00
6532;BME280;3299;42.004;24.868;2023-10-19T02:51:32;98296.78;;;9.99;100.00
6532;BME280;3299;42.004;24.868;2023-10-19T02:53:58;98340.22;;;10.19;100.00
6532;BME280;3299;42.004;24.868;2023-10-19T02:56:27;98316.22;;;10.04;100.00
6532;BME280;3299;42.004;24.868;2023-10-19T02:58:55;98298.81;;;9.81;100.00
6532;BME280;3299;42.004;24.868;2023-10-19T03:01:27;98348.59;;;10.10;100.00
6532;BME280;3299;42.004;24.868;2023-10-19T03:04:00;98344.38;;;10.09;100.00
6532;BME280;3299;42.004;24.868;2023-10-19T03:06:28;98347.34;;;10.15;100.00
6532;BME280;3299;42.004;24.868;2023-10-19T03:08:58;98304.13;;;9.80;100.00
6532;BME280;3299;42.004;24.868;2023-10-19T03:11:24;98338.56;;;10.05;100.00
6532;BME280;3299;42.004;24.868;2023-10-19T03:13:50;98344.84;;;10.14;100.00
6532;BME280;3299;42.004;24.868;2023-10-19T03:16:19;98305.88;;;9.92;100.00
6532;BME280;3299;42.004;24.868;2023-10-19T03:18:46;98350.34;;;10.22;100.00
6532;BME280;3299;42.004;24.868;2023-10-19T03:21:11;98339.91;;;10.11;100.00
6532;BME280;3299;42.004;24.868;2023-10-19T03:23:37;98316.28;;;10.03;100.00
6532;BME280;3299;42.004;24.868;2023-10-19T03:26:04;98354.59;;;10.23;100.00
6532;BME280;3299;42.004;24.868;2023-10-19T03:28:48;98352.44;;;10.17;100.00
6532;BME280;3299;42.004;24.868;2023-10-19T03:31:14;98330.38;;;10.11;100.00
6532;BME280;3299;42.004;24.868;2023-10-19T03:33:46;98349.41;;;10.10;100.00
6532;BME280;3299;42.004;24.868;2023-10-19T03:36:15;98351.19;;;10.10;100.00
6532;BME280;3299;42.004;24.868;2023-10-19T03:38:40;98305.44;;;9.85;100.00
6532;BME280;3299;42.004;24.868;2023-10-19T03:41:06;98338.97;;;10.12;100.00
6532;BME280;3299;42.004;24.868;2023-10-19T03:43:34;98347.25;;;10.17;100.00
6532;BME280;3299;42.004;24.868;2023-10-19T03:46:02;98318.72;;;10.06;100.00
6532;BME280;3299;42.004;24.868;2023-10-19T03:48:31;98342.09;;;10.17;100.00
6532;BME280;3299;42.004;24.868;2023-10-19T03:51:01;98319.56;;;10.07;100.00
6532;BME280;3299;42.004;24.868;2023-10-19T03:53:28;98329.97;;;10.17;100.00
6532;BME280;3299;42.004;24.868;2023-10-19T03:55:53;98340.53;;;10.27;100.00
6532;BME280;3299;42.004;24.868;2023-10-19T03:58:20;98339.41;;;10.18;100.00
6532;BME280;3299;42.004;24.868;2023-10-19T04:00:47;98331.03;;;10.15;100.00
6532;BME280;3299;42.004;24.868;2023-10-19T04:03:17;98301.72;;;10.02;100.00
6532;BME280;3299;42.004;24.868;2023-10-19T04:05:43;98330.47;;;10.22;100.00
6532;BME280;3299;42.004;24.868;2023-10-19T04:08:12;98306.72;;;10.05;100.00
6532;BME280;3299;42.004;24.868;2023-10-19T04:10:39;98324.09;;;10.28;100.00
6532;BME280;3299;42.004;24.868;2023-10-19T04:13:31;98337.19;;;10.37;100.00
6532;BME280;3299;42.004;24.868;2023-10-19T04:15:56;98314.53;;;10.28;100.00
6532;BME280;3299;42.004;24.868;2023-10-19T04:18:21;98331.94;;;10.39;100.00
6532;BME280;3299;42.004;24.868;2023-10-19T04:20:50;98298.66;;;10.22;100.00
6532;BME280;3299;42.004;24.868;2023-10-19T04:23:16;98319.53;;;10.19;100.00
6532;BME280;3299;42.004;24.868;2023-10-19T04:25:41;98331.09;;;10.26;100.00
6532;BME280;3299;42.004;24.868;2023-10-19T04:28:07;98299.97;;;10.02;100.00
6532;BME280;3299;42.004;24.868;2023-10-19T04:30:32;98308.94;;;9.97;100.00
6532;BME280;3299;42.004;24.868;2023-10-19T04:33:02;98330.91;;;10.16;100.00
6532;BME280;3299;42.004;24.868;2023-10-19T04:35:27;98320.97;;;10.10;100.00
6532;BME280;3299;42.004;24.868;2023-10-19T04:37:59;98297.19;;;9.93;100.00
6532;BME280;3299;42.004;24.868;2023-10-19T04:40:25;98326.00;;;9.99;100.00
6532;BME280;3299;42.004;24.868;2023-10-19T04:42:52;98329.94;;;9.92;100.00
6532;BME280;3299;42.004;24.868;2023-10-19T04:45:18;98318.25;;;9.74;100.00
6532;BME280;3299;42.004;24.868;2023-10-19T04:47:43;98328.16;;;9.68;100.00
6532;BME280;3299;42.004;24.868;2023-10-19T04:50:09;98297.47;;;9.51;100.00
6532;BME280;3299;42.004;24.868;2023-10-19T04:52:38;98313.72;;;9.66;100.00
6532;BME280;3299;42.004;24.868;2023-10-19T04:55:04;98299.19;;;9.38;100.00
6532;BME280;3299;42.004;24.868;2023-10-19T04:57:30;98303.53;;;9.38;100.00
6532;BME280;3299;42.004;24.868;2023-10-19T04:59:56;98319.88;;;9.51;100.00
6532;BME280;3299;42.004;24.868;2023-10-19T05:02:22;98318.31;;;9.48;100.00
6532;BME280;3299;42.004;24.868;2023-10-19T05:04:47;98323.09;;;9.54;100.00
6532;BME280;3299;42.004;24.868;2023-10-19T05:07:13;98344.72;;;9.66;100.00
6532;BME280;3299;42.004;24.868;2023-10-19T05:09:42;98337.47;;;9.58;100.00
6532;BME280;3299;42.004;24.868;2023-10-19T05:12:07;98336.31;;;9.62;100.00
6532;BME280;3299;42.004;24.868;2023-10-19T05:14:41;98330.66;;;9.57;100.00
6532;BME280;3299;42.004;24.868;2023-10-19T05:17:07;98342.53;;;9.72;100.00
6532;BME280;3299;42.004;24.868;2023-10-19T05:19:35;98337.91;;;9.77;100.00
6532;BME280;3299;42.004;24.868;2023-10-19T05:22:01;98346.78;;;9.85;100.00
6532;BME280;3299;42.004;24.868;2023-10-19T05:24:28;98349.81;;;9.92;100.00
6532;BME280;3299;42.004;24.868;2023-10-19T05:26:55;98330.25;;;9.88;100.00
6532;BME280;3299;42.004;24.868;2023-10-19T05:29:21;98332.63;;;9.78;100.00
6532;BME280;3299;42.004;24.868;2023-10-19T05:31:46;98345.13;;;9.97;100.00
6532;BME280;3299;42.004;24.868;2023-10-19T05:34:12;98326.13;;;9.98;100.00
6532;BME280;3299;42.004;24.868;2023-10-19T05:36:38;98335.94;;;9.93;100.00
6532;BME280;3299;42.004;24.868;2023-10-19T05:39:04;98346.59;;;10.01;100.00
6532;BME280;3299;42.004;24.868;2023-10-19T05:41:33;98336.91;;;10.04;100.00
6532;BME280;3299;42.004;24.868;2023-10-19T05:43:59;98324.25;;;10.00;100.00
6532;BME280;3299;42.004;24.868;2023-10-19T05:46:24;98336.69;;;10.20;100.00
6532;BME280;3299;42.004;24.868;2023-10-19T05:48:50;98344.53;;;10.31;100.00
6532;BME280;3299;42.004;24.868;2023-10-19T05:51:16;98358.78;;;10.49;100.00
6532;BME280;3299;42.004;24.868;2023-10-19T05:53:43;98339.19;;;10.34;100.00
6532;BME280;3299;42.004;24.868;2023-10-19T05:56:10;98337.81;;;10.41;100.00
6532;BME280;3299;42.004;24.868;2023-10-19T05:58:36;98343.50;;;10.46;100.00
6532;BME280;3299;42.004;24.868;2023-10-19T06:01:01;98356.09;;;10.63;100.00
6532;BME280;3299;42.004;24.868;2023-10-19T06:03:27;98319.72;;;10.41;100.00
6532;BME280;3299;42.004;24.868;2023-10-19T06:05:53;98317.41;;;10.49;100.00
6532;BME280;3299;42.004;24.868;2023-10-19T06:08:22;98328.34;;;10.65;100.00
6532;BME280;3299;42.004;24.868;2023-10-19T06:10:51;98351.09;;;10.85;100.00
6532;BME280;3299;42.004;24.868;2023-10-19T06:13:17;98341.16;;;10.79;100.00
6532;BME280;3299;42.004;24.868;2023-10-19T06:15:42;98341.53;;;10.85;100.00
6532;BME280;3299;42.004;24.868;2023-10-19T06:18:08;98347.81;;;10.94;100.00
6532;BME280;3299;42.004;24.868;2023-10-19T06:20:35;98335.22;;;10.89;100.00
6532;BME280;3299;42.004;24.868;2023-10-19T06:23:01;98348.34;;;10.99;100.00
6532;BME280;3299;42.004;24.868;2023-10-19T06:25:30;98314.28;;;10.69;100.00
6532;BME280;3299;42.004;24.868;2023-10-19T06:27:56;98336.97;;;10.89;100.00
6532;BME280;3299;42.004;24.868;2023-10-19T06:30:25;98311.97;;;10.77;100.00
6532;BME280;3299;42.004;24.868;2023-10-19T06:32:52;98301.59;;;10.77;100.00
6532;BME280;3299;42.004;24.868;2023-10-19T06:35:19;98315.63;;;10.98;100.00
6532;BME280;3299;42.004;24.868;2023-10-19T06:37:45;98344.22;;;11.20;100.00
6532;BME280;3299;42.004;24.868;2023-10-19T06:40:11;98345.19;;;11.30;100.00
6532;BME280;3299;42.004;24.868;2023-10-19T06:42:38;98345.34;;;11.39;100.00
6532;BME280;3299;42.004;24.868;2023-10-19T06:45:04;98323.91;;;11.37;100.00
6532;BME280;3299;42.004;24.868;2023-10-19T06:47:30;98338.41;;;11.40;100.00
6532;BME280;3299;42.004;24.868;2023-10-19T06:49:56;98355.47;;;11.66;100.00
6532;BME280;3299;42.004;24.868;2023-10-19T06:52:22;98311.38;;;11.55;100.00
6532;BME280;3299;42.004;24.868;2023-10-19T06:54:47;98313.31;;;11.64;100.00
6532;BME280;3299;42.004;24.868;2023-10-19T06:57:12;98315.81;;;11.65;100.00
6532;BME280;3299;42.004;24.868;2023-10-19T06:59:38;98328.69;;;11.89;100.00
6532;BME280;3299;42.004;24.868;2023-10-19T07:02:04;98315.03;;;11.87;100.00
6532;BME280;3299;42.004;24.868;2023-10-19T07:04:29;98353.25;;;12.18;100.00
6532;BME280;3299;42.004;24.868;2023-10-19T07:06:55;98353.59;;;12.13;100.00
6532;BME280;3299;42.004;24.868;2023-10-19T07:09:22;98356.69;;;12.29;100.00
6532;BME280;3299;42.004;24.868;2023-10-19T07:11:49;98360.94;;;12.41;100.00
6532;BME280;3299;42.004;24.868;2023-10-19T07:14:18;98355.28;;;12.47;100.00
6532;BME280;3299;42.004;24.868;2023-10-19T07:16:44;98361.75;;;12.64;100.00
6532;BME280;3299;42.004;24.868;2023-10-19T07:19:10;98374.50;;;12.78;100.00
6532;BME280;3299;42.004;24.868;2023-10-19T07:21:35;98335.44;;;12.79;100.00
6532;BME280;3299;42.004;24.868;2023-10-19T07:24:03;98330.09;;;12.92;100.00
6532;BME280;3299;42.004;24.868;2023-10-19T07:26:31;98353.91;;;13.19;100.00
6532;BME280;3299;42.004;24.868;2023-10-19T07:28:59;98365.31;;;13.38;100.00
6532;BME280;3299;42.004;24.868;2023-10-19T07:31:25;98369.59;;;13.60;100.00
6532;BME280;3299;42.004;24.868;2023-10-19T07:33:53;98329.59;;;13.51;100.00
6532;BME280;3299;42.004;24.868;2023-10-19T07:36:21;98337.41;;;13.72;100.00
6532;BME280;3299;42.004;24.868;2023-10-19T07:38:46;98350.41;;;13.92;100.00
6532;BME280;3299;42.004;24.868;2023-10-19T07:41:13;98341.59;;;13.84;100.00
6532;BME280;3299;42.004;24.868;2023-10-19T07:43:38;98330.91;;;13.87;100.00
6532;BME280;3299;42.004;24.868;2023-10-19T07:46:04;98344.56;;;14.00;100.00
6532;BME280;3299;42.004;24.868;2023-10-19T07:48:30;98331.69;;;13.98;100.00
6532;BME280;3299;42.004;24.868;2023-10-19T07:50:55;98335.19;;;14.08;100.00
6532;BME280;3299;42.004;24.868;2023-10-19T07:53:20;98324.09;;;14.16;100.00
6532;BME280;3299;42.004;24.868;2023-10-19T07:55:47;98318.41;;;14.22;100.00
6532;BME280;3299;42.004;24.868;2023-10-19T07:58:12;98350.75;;;14.49;100.00
6532;BME280;3299;42.004;24.868;2023-10-19T08:00:38;98313.56;;;14.38;100.00
6532;BME280;3299;42.004;24.868;2023-10-19T08:03:04;98335.16;;;14.59;100.00
6532;BME280;3299;42.004;24.868;2023-10-19T08:05:30;98306.34;;;14.51;100.00
6532;BME280;3299;42.004;24.868;2023-10-19T08:07:56;98345.66;;;14.78;100.00
6532;BME280;3299;42.004;24.868;2023-10-19T08:10:26;98303.25;;;14.57;100.00
6532;BME280;3299;42.004;24.868;2023-10-19T08:12:52;98316.72;;;14.71;100.00
6532;BME280;3299;42.004;24.868;2023-10-19T08:15:18;98341.00;;;14.81;100.00
6532;BME280;3299;42.004;24.868;2023-10-19T08:17:47;98306.69;;;14.67;100.00
6532;BME280;3299;42.004;24.868;2023-10-19T08:20:14;98335.22;;;14.78;100.00
6532;BME280;3299;42.004;24.868;2023-10-19T08:22:49;98294.03;;;14.53;100.00
6532;BME280;3299;42.004;24.868;2023-10-19T08:25:15;98332.53;;;14.89;100.00
6532;BME280;3299;42.004;24.868;2023-10-19T08:27:41;98310.56;;;14.82;100.00
6532;BME280;3299;42.004;24.868;2023-10-19T08:30:10;98323.38;;;15.04;100.00
6532;BME280;3299;42.004;24.868;2023-10-19T08:32:36;98328.31;;;15.16;100.00
6532;BME280;3299;42.004;24.868;2023-10-19T08:35:02;98320.34;;;15.08;100.00
6532;BME280;3299;42.004;24.868;2023-10-19T08:37:28;98293.31;;;15.00;100.00
6532;BME280;3299;42.004;24.868;2023-10-19T08:39:53;98327.69;;;15.33;100.00
6532;BME280;3299;42.004;24.868;2023-10-19T08:42:19;98289.38;;;15.24;100.00
6532;BME280;3299;42.004;24.868;2023-10-19T08:44:46;98312.00;;;15.24;100.00
6532;BME280;3299;42.004;24.868;2023-10-19T08:47:12;98301.28;;;15.17;100.00
6532;BME280;3299;42.004;24.868;2023-10-19T08:49:37;98297.75;;;15.28;100.00
6532;BME280;3299;42.004;24.868;2023-10-19T08:52:03;98323.03;;;15.56;100.00
6532;BME280;3299;42.004;24.868;2023-10-19T08:54:30;98285.69;;;15.46;100.00
6532;BME280;3299;42.004;24.868;2023-10-19T08:56:55;98334.41;;;15.74;100.00
6532;BME280;3299;42.004;24.868;2023-10-19T08:59:21;98337.56;;;15.87;100.00
6532;BME280;3299;42.004;24.868;2023-10-19T09:01:47;98328.88;;;15.96;100.00
6532;BME280;3299;42.004;24.868;2023-10-19T09:04:14;98318.84;;;16.01;100.00
6532;BME280;3299;42.004;24.868;2023-10-19T09:06:41;98305.38;;;15.96;100.00
6532;BME280;3299;42.004;24.868;2023-10-19T09:09:11;98310.03;;;16.02;100.00
6532;BME280;3299;42.004;24.868;2023-10-19T09:11:48;98329.13;;;16.12;100.00
6532;BME280;3299;42.004;24.868;2023-10-19T09:14:14;98288.38;;;15.92;100.00
6532;BME280;3299;42.004;24.868;2023-10-19T09:16:55;98307.03;;;16.06;100.00
6532;BME280;3299;42.004;24.868;2023-10-19T09:19:41;98318.06;;;16.27;100.00
6532;BME280;3299;42.004;24.868;2023-10-19T09:22:07;98292.94;;;16.26;100.00
6532;BME280;3299;42.004;24.868;2023-10-19T09:24:42;98285.06;;;16.36;100.00
6532;BME280;3299;42.004;24.868;2023-10-19T09:27:07;98295.06;;;16.50;100.00
6532;BME280;3299;42.004;24.868;2023-10-19T09:29:33;98282.88;;;16.41;100.00
6532;BME280;3299;42.004;24.868;2023-10-19T09:31:59;98291.69;;;16.40;100.00
6532;BME280;3299;42.004;24.868;2023-10-19T09:34:29;98279.47;;;16.40;100.00
6532;BME280;3299;42.004;24.868;2023-10-19T09:37:01;98242.59;;;16.34;100.00
6532;BME280;3299;42.004;24.868;2023-10-19T09:39:31;98279.50;;;16.58;100.00
6532;BME280;3299;42.004;24.868;2023-10-19T09:42:06;98282.09;;;16.58;100.00
6532;BME280;3299;42.004;24.868;2023-10-19T09:44:44;98274.06;;;16.69;100.00
6532;BME280;3299;42.004;24.868;2023-10-19T09:49:51;98265.19;;;16.79;100.00
6532;BME280;3299;42.004;24.868;2023-10-19T09:52:17;98250.34;;;16.80;100.00
6532;BME280;3299;42.004;24.868;2023-10-19T09:54:54;98269.25;;;16.91;100.00
6532;BME280;3299;42.004;24.868;2023-10-19T09:57:31;98230.03;;;16.74;100.00
6532;BME280;3299;42.004;24.868;2023-10-19T10:00:05;98254.41;;;16.92;100.00
6532;BME280;3299;42.004;24.868;2023-10-19T10:02:39;98247.81;;;16.88;100.00
6532;BME280;3299;42.004;24.868;2023-10-19T10:10:52;98230.72;;;16.93;100.00
6532;BME280;3299;42.004;24.868;2023-10-19T10:15:56;98201.69;;;17.14;100.00
6532;BME280;3299;42.004;24.868;2023-10-19T10:18:26;98224.72;;;17.36;100.00
6532;BME280;3299;42.004;24.868;2023-10-19T10:21:14;98184.13;;;17.06;100.00
6532;BME280;3299;42.004;24.868;2023-10-19T10:26:10;98205.69;;;17.26;100.00
6532;BME280;3299;42.004;24.868;2023-10-19T10:28:36;98217.13;;;17.25;100.00
6532;BME280;3299;42.004;24.868;2023-10-19T10:31:18;98220.50;;;17.17;100.00
6532;BME280;3299;42.004;24.868;2023-10-19T10:33:51;98193.75;;;17.06;100.00
6532;BME280;3299;42.004;24.868;2023-10-19T10:36:18;98176.56;;;17.21;100.00
6532;BME280;3299;42.004;24.868;2023-10-19T10:38:45;98217.44;;;17.65;100.00
6532;BME280;3299;42.004;24.868;2023-10-19T10:41:11;98218.50;;;17.97;100.00
6532;BME280;3299;42.004;24.868;2023-10-19T10:43:54;98205.44;;;18.13;100.00
6532;BME280;3299;42.004;24.868;2023-10-19T10:46:24;98221.78;;;18.33;100.00
6532;BME280;3299;42.004;24.868;2023-10-19T10:48:50;98216.88;;;18.38;100.00
6532;BME280;3299;42.004;24.868;2023-10-19T10:51:26;98190.94;;;18.19;100.00
6532;BME280;3299;42.004;24.868;2023-10-19T10:53:57;98196.16;;;18.19;100.00
6532;BME280;3299;42.004;24.868;2023-10-19T10:56:23;98196.16;;;18.19;100.00
6532;BME280;3299;42.004;24.868;2023-10-19T10:58:49;98208.97;;;18.30;100.00
6532;BME280;3299;42.004;24.868;2023-10-19T11:01:24;98191.94;;;18.26;100.00
6532;BME280;3299;42.004;24.868;2023-10-19T11:04:08;98185.69;;;18.19;100.00
6532;BME280;3299;42.004;24.868;2023-10-19T11:06:46;98156.34;;;18.07;100.00
6532;BME280;3299;42.004;24.868;2023-10-19T11:09:12;98177.91;;;18.35;100.00
6532;BME280;3299;42.004;24.868;2023-10-19T11:11:38;98193.00;;;18.41;100.00
6532;BME280;3299;42.004;24.868;2023-10-19T11:14:11;98158.03;;;18.24;100.00
6532;BME280;3299;42.004;24.868;2023-10-19T11:16:36;98171.06;;;18.42;100.00
6532;BME280;3299;42.004;24.868;2023-10-19T11:19:04;98183.25;;;18.59;100.00
6532;BME280;3299;42.004;24.868;2023-10-19T11:21:29;98156.03;;;18.60;100.00
6532;BME280;3299;42.004;24.868;2023-10-19T11:23:55;98169.81;;;18.86;85.57
6532;BME280;3299;42.004;24.868;2023-10-19T11:26:23;98157.25;;;18.97;82.15
6532;BME280;3299;42.004;24.868;2023-10-19T11:29:02;98154.78;;;18.96;81.42
6532;BME280;3299;42.004;24.868;2023-10-19T11:31:29;98154.13;;;19.02;81.99
6532;BME280;3299;42.004;24.868;2023-10-19T11:34:03;98169.69;;;19.19;80.55
6532;BME280;3299;42.004;24.868;2023-10-19T11:36:29;98119.38;;;19.00;80.20
6532;BME280;3299;42.004;24.868;2023-10-19T11:38:54;98148.19;;;19.16;78.12
6532;BME280;3299;42.004;24.868;2023-10-19T11:41:20;98137.91;;;19.14;78.50
6532;BME280;3299;42.004;24.868;2023-10-19T11:43:46;98155.78;;;19.27;78.27
6532;BME280;3299;42.004;24.868;2023-10-19T11:46:13;98123.31;;;19.12;78.41
6532;BME280;3299;42.004;24.868;2023-10-19T11:48:40;98117.91;;;19.21;75.78
6532;BME280;3299;42.004;24.868;2023-10-19T11:51:07;98142.16;;;19.39;73.84
6532;BME280;3299;42.004;24.868;2023-10-19T11:53:36;98118.69;;;19.38;73.66
6532;BME280;3299;42.004;24.868;2023-10-19T11:56:06;98128.53;;;19.52;73.30
6532;BME280;3299;42.004;24.868;2023-10-19T11:58:33;98122.28;;;19.53;72.89
6532;BME280;3299;42.004;24.868;2023-10-19T12:00:59;98106.59;;;19.29;74.03
6532;BME280;3299;42.004;24.868;2023-10-19T12:03:25;98104.09;;;19.35;74.91
6532;BME280;3299;42.004;24.868;2023-10-19T12:05:51;98102.47;;;19.34;76.83
6532;BME280;3299;42.004;24.868;2023-10-19T12:08:18;98097.72;;;19.22;74.60
6532;BME280;3299;42.004;24.868;2023-10-19T12:10:44;98100.34;;;19.14;75.05
6532;BME280;3299;42.004;24.868;2023-10-19T12:13:09;98065.78;;;18.86;76.41
6532;BME280;3299;42.004;24.868;2023-10-19T12:15:35;98092.81;;;19.03;78.08
6532;BME280;3299;42.004;24.868;2023-10-19T12:18:01;98059.06;;;18.92;75.19
6532;BME280;3299;42.004;24.868;2023-10-19T12:20:30;98045.63;;;18.95;73.87
6532;BME280;3299;42.004;24.868;2023-10-19T12:22:57;98092.16;;;19.25;76.18
6532;BME280;3299;42.004;24.868;2023-10-19T12:25:24;98085.91;;;19.34;73.89
6532;BME280;3299;42.004;24.868;2023-10-19T12:27:57;98051.50;;;19.21;73.27
6532;BME280;3299;42.004;24.868;2023-10-19T12:30:23;98064.63;;;19.21;75.22
6532;BME280;3299;42.004;24.868;2023-10-19T12:32:54;98076.28;;;19.26;77.98
6532;BME280;3299;42.004;24.868;2023-10-19T12:35:20;98050.34;;;19.07;76.92
6532;BME280;3299;42.004;24.868;2023-10-19T12:37:52;98059.03;;;19.08;76.64
6532;BME280;3299;42.004;24.868;2023-10-19T12:40:18;98050.69;;;19.04;76.06
6532;BME280;3299;42.004;24.868;2023-10-19T12:42:53;98064.66;;;18.89;78.62
6532;BME280;3299;42.004;24.868;2023-10-19T12:45:22;98048.91;;;18.81;77.81
6532;BME280;3299;42.004;24.868;2023-10-19T12:47:48;98028.78;;;18.73;77.94
6532;BME280;3299;42.004;24.868;2023-10-19T12:50:14;98018.44;;;18.80;77.50
6532;BME280;3299;42.004;24.868;2023-10-19T12:52:41;98045.47;;;18.88;77.06
6532;BME280;3299;42.004;24.868;2023-10-19T12:55:07;98029.44;;;18.67;79.54
6532;BME280;3299;42.004;24.868;2023-10-19T12:57:33;98031.72;;;18.62;76.78
6532;BME280;3299;42.004;24.868;2023-10-19T12:59:59;98015.50;;;18.43;81.79
6532;BME280;3299;42.004;24.868;2023-10-19T13:02:31;98016.31;;;18.43;81.98
6532;BME280;3299;42.004;24.868;2023-10-19T13:04:57;98007.97;;;18.40;82.92
6532;BME280;3299;42.004;24.868;2023-10-19T13:07:24;97999.13;;;18.33;82.74
6532;BME280;3299;42.004;24.868;2023-10-19T13:09:51;98015.50;;;18.43;84.47
6532;BME280;3299;42.004;24.868;2023-10-19T13:12:17;98009.13;;;18.45;79.21
6532;BME280;3299;42.004;24.868;2023-10-19T13:14:48;98001.59;;;18.34;81.86
6532;BME280;3299;42.004;24.868;2023-10-19T13:17:14;98005.63;;;18.21;82.85
6532;BME280;3299;42.004;24.868;2023-10-19T13:19:39;97992.69;;;18.11;84.14
6532;BME280;3299;42.004;24.868;2023-10-19T13:22:05;97989.56;;;18.00;84.56